Time;durP1;ratioP1;P1;durP2;ratioP2;P2;SDS_P1;SDS_P2;PMS_P1;PMS_P2;Temp;Humidity;BMP_temperature;BMP_pressure;BME280_temperature;BME280_humidity;BME280_pressure;Samples;Min_cycle;Max_cycle;Signal;HPM_P1;HPM_P2
2024/04/10 00:00:54;;;;;;;3.63;1.97;;;;;;;8.87;100.00;96871.38;5342087;26;20320;-71
2024/04/10 00:03:22;;;;;;;2.87;1.73;;;;;;;8.89;100.00;96887.00;5327785;26;20602;-72
2024/04/10 00:05:59;;;;;;;1.90;1.40;;;;;;;9.17;100.00;96884.09;5347852;26;20999;-70
2024/04/10 00:08:25;;;;;;;2.17;1.67;;;;;;;9.01;100.00;96888.41;5329484;26;20439;-72
2024/04/10 00:10:53;;;;;;;2.10;1.40;;;;;;;9.04;100.00;96888.94;5340893;26;20336;-72
2024/04/10 00:13:19;;;;;;;2.30;1.47;;;;;;;9.09;100.00;96903.25;5328842;26;20376;-71
2024/04/10 00:15:59;;;;;;;2.57;1.70;;;;;;;9.27;100.00;96898.00;5346242;26;20738;-71
2024/04/10 00:18:25;;;;;;;3.53;2.10;;;;;;;8.87;100.00;96908.19;5342475;26;21198;-72
2024/04/10 00:20:53;;;;;;;2.13;1.43;;;;;;;8.88;100.00;96909.81;5342528;26;20244;-71
2024/04/10 00:23:19;;;;;;;3.50;1.83;;;;;;;8.98;100.00;96915.81;5340662;26;20233;-71
2024/04/10 00:25:55;;;;;;;2.00;1.43;;;;;;;9.16;100.00;96919.25;5338919;26;20239;-71
2024/04/10 00:28:21;;;;;;;2.50;1.90;;;;;;;8.96;100.00;96911.69;5349447;26;20279;-72
2024/04/10 00:30:51;;;;;;;2.50;1.70;;;;;;;9.23;100.00;96920.31;5326089;26;20579;-70
2024/04/10 00:33:18;;;;;;;2.80;1.70;;;;;;;9.25;100.00;96923.59;5327953;26;20857;-70
2024/04/10 00:35:56;;;;;;;2.57;1.57;;;;;;;9.48;100.00;96919.50;5326944;26;20283;-73
2024/04/10 00:38:21;;;;;;;2.47;1.73;;;;;;;9.24;100.00;96928.06;5339571;26;20791;-71
2024/04/10 00:40:55;;;;;;;4.27;2.00;;;;;;;9.42;100.00;96925.38;5339085;26;20291;-71
2024/04/10 00:43:20;;;;;;;2.53;1.70;;;;;;;9.10;100.00;96919.88;5338873;26;20340;-72
2024/04/10 00:45:58;;;;;;;1.90;1.50;;;;;;;9.12;100.00;96923.97;5337737;26;21284;-72
2024/04/10 00:48:24;;;;;;;3.37;1.83;;;;;;;8.76;100.00;96925.97;5338922;26;20613;-72
2024/04/10 00:50:55;;;;;;;2.20;1.67;;;;;;;8.92;100.00;96947.13;5336427;26;20899;-71
2024/04/10 00:53:21;;;;;;;2.70;2.07;;;;;;;8.98;100.00;96939.47;5350073;26;20296;-71
2024/04/10 00:55:49;;;;;;;3.47;1.97;;;;;;;9.03;100.00;96934.59;5336771;26;20257;-72
2024/04/10 00:58:15;;;;;;;3.23;1.90;;;;;;;8.92;100.00;96924.28;5348205;26;20688;-71
2024/04/10 01:00:44;;;;;;;3.27;2.03;;;;;;;8.93;100.00;96933.84;5337104;26;20249;-71
2024/04/10 01:03:12;;;;;;;4.00;2.37;;;;;;;9.21;100.00;96927.53;5346438;26;20277;-72
2024/04/10 01:05:41;;;;;;;4.00;1.90;;;;;;;8.81;100.00;96924.53;5330738;26;20611;-71
2024/04/10 01:08:06;;;;;;;2.50;1.60;;;;;;;9.14;100.00;96919.41;5345951;26;20300;-72
2024/04/10 01:10:35;;;;;;;5.33;2.80;;;;;;;9.10;100.00;96914.63;5335785;26;20248;-71
2024/04/10 01:13:00;;;;;;;2.93;1.77;;;;;;;9.15;100.00;96923.72;5344749;26;20292;-70
2024/04/10 01:15:29;;;;;;;3.30;2.00;;;;;;;9.16;100.00;96929.78;5334779;26;20506;-72
2024/04/10 01:17:54;;;;;;;2.70;1.73;;;;;;;9.08;100.00;96930.53;5344150;26;20295;-72
2024/04/10 01:20:25;;;;;;;3.33;2.23;;;;;;;9.29;100.00;96930.22;5334035;26;20720;-70
2024/04/10 01:22:51;;;;;;;4.40;2.20;;;;;;;8.93;100.00;96933.84;5344115;26;20295;-70
2024/04/10 01:25:21;;;;;;;3.07;1.80;;;;;;;9.30;100.00;96918.72;5332577;26;20476;-72
2024/04/10 01:27:47;;;;;;;3.73;2.40;;;;;;;8.71;100.00;96917.69;5342403;26;20291;-71
2024/04/10 01:30:15;;;;;;;2.77;2.00;;;;;;;8.85;100.00;96925.88;5325806;26;20350;-72
2024/04/10 01:32:41;;;;;;;2.43;1.80;;;;;;;9.12;100.00;96934.50;5333232;26;20584;-72
2024/04/10 01:35:09;;;;;;;2.27;1.93;;;;;;;9.14;100.00;96942.25;5325697;26;20346;-71
2024/04/10 01:37:34;;;;;;;2.60;1.70;;;;;;;8.86;100.00;96938.06;5341999;26;21257;-70
2024/04/10 01:40:03;;;;;;;2.90;1.90;;;;;;;9.19;100.00;96940.00;5337346;26;20228;-72
2024/04/10 01:42:31;;;;;;;3.33;1.70;;;;;;;9.13;100.00;96938.78;5350568;26;20674;-70
2024/04/10 01:44:59;;;;;;;5.27;1.83;;;;;;;9.08;100.00;96927.09;5332394;26;20232;-70
2024/04/10 01:47:25;;;;;;;1.67;1.20;;;;;;;9.14;100.00;96931.75;5348257;26;20284;-71
2024/04/10 01:49:53;;;;;;;2.30;1.53;;;;;;;9.18;100.00;96943.63;5332577;26;20350;-70
2024/04/10 01:52:19;;;;;;;3.33;1.47;;;;;;;9.02;100.00;96946.09;5344583;26;20277;-71
2024/04/10 01:54:49;;;;;;;1.87;1.30;;;;;;;9.19;100.00;96947.91;5334488;26;20335;-71
2024/04/10 01:57:17;;;;;;;2.43;1.70;;;;;;;8.89;100.00;96953.50;5344281;26;20791;-72
2024/04/10 01:59:45;;;;;;;2.80;1.53;;;;;;;9.02;100.00;96947.91;5333184;26;20281;-70
2024/04/10 02:02:14;;;;;;;2.57;1.80;;;;;;;8.98;100.00;96947.34;5342850;26;21068;-72
2024/04/10 02:04:39;;;;;;;2.53;1.67;;;;;;;9.11;100.00;96946.03;5332969;26;20292;-71
2024/04/10 02:07:08;;;;;;;2.90;1.50;;;;;;;8.96;100.00;96945.84;5342209;26;20233;-73
2024/04/10 02:09:33;;;;;;;1.50;1.20;;;;;;;8.93;100.00;96944.34;5333324;26;20285;-72
2024/04/10 02:12:02;;;;;;;1.90;1.23;;;;;;;9.01;100.00;96952.31;5340181;26;20592;-72
2024/04/10 02:14:28;;;;;;;3.30;1.80;;;;;;;8.70;100.00;96948.38;5331449;26;20280;-71
2024/04/10 02:16:59;;;;;;;4.23;1.50;;;;;;;8.96;100.00;96944.06;5341326;26;20231;-71
2024/04/10 02:19:25;;;;;;;2.10;1.70;;;;;;;8.80;100.00;96951.78;5334710;26;20569;-72
2024/04/10 02:21:53;;;;;;;1.90;1.60;;;;;;;8.80;100.00;96949.16;5349652;26;20347;-72
2024/04/10 02:24:19;;;;;;;2.13;1.67;;;;;;;8.89;100.00;96958.78;5335707;26;20221;-72
2024/04/10 02:26:47;;;;;;;2.50;1.70;;;;;;;8.85;100.00;96962.69;5348564;26;20300;-72
2024/04/10 02:29:13;;;;;;;2.80;2.03;;;;;;;8.71;100.00;96959.75;5328895;26;20363;-70
2024/04/10 02:31:41;;;;;;;3.40;1.80;;;;;;;8.58;100.00;96954.84;5331907;26;20731;-72
2024/04/10 02:34:11;;;;;;;2.77;1.30;;;;;;;8.79;100.00;96958.00;5325469;26;20233;-71
2024/04/10 02:36:39;;;;;;;2.73;1.67;;;;;;;8.63;100.00;96963.09;5324083;26;20233;-71
2024/04/10 02:39:05;;;;;;;3.87;2.27;;;;;;;8.71;100.00;96968.44;5324863;26;20860;-71
2024/04/10 02:41:33;;;;;;;2.10;1.53;;;;;;;8.78;100.00;96956.38;5321837;26;20251;-72
2024/04/10 02:43:59;;;;;;;2.20;1.67;;;;;;;8.69;100.00;96956.41;5326391;26;20281;-72
2024/04/10 02:46:28;;;;;;;2.83;1.70;;;;;;;8.86;100.00;96948.56;5325025;26;20342;-71
2024/04/10 02:48:54;;;;;;;2.87;2.00;;;;;;;8.51;100.00;96953.78;5326019;26;20359;-72
2024/04/10 02:51:25;;;;;;;3.77;2.00;;;;;;;8.69;100.00;96956.41;5328224;26;20606;-72
2024/04/10 02:53:50;;;;;;;5.37;2.10;;;;;;;8.60;100.00;96952.91;5325383;26;20284;-72
2024/04/10 02:56:20;;;;;;;2.77;1.93;;;;;;;8.71;100.00;96951.88;5325611;26;20362;-72
2024/04/10 02:58:46;;;;;;;3.33;2.40;;;;;;;8.54;100.00;96966.63;5324969;26;20229;-72
2024/04/10 03:01:15;;;;;;;2.80;1.60;;;;;;;8.71;100.00;96960.56;5323906;26;20334;-70
2024/04/10 03:03:40;;;;;;;3.13;2.00;;;;;;;8.63;100.00;96957.00;5324567;26;20416;-72
2024/04/10 03:06:10;;;;;;;2.37;1.80;;;;;;;8.58;100.00;96960.09;5330570;26;20271;-72
2024/04/10 03:08:38;;;;;;;2.57;1.90;;;;;;;8.65;100.00;96968.22;5325016;26;20289;-71
2024/04/10 03:11:07;;;;;;;2.80;1.60;;;;;;;8.34;100.00;96973.91;5324010;26;20283;-73
2024/04/10 03:13:33;;;;;;;2.53;1.83;;;;;;;8.52;100.00;96973.81;5325426;26;20539;-72
2024/04/10 03:16:01;;;;;;;2.33;1.70;;;;;;;8.46;100.00;96970.94;5327228;26;20786;-72
2024/04/10 03:18:27;;;;;;;3.03;1.90;;;;;;;8.56;100.00;96977.78;5325667;26;20279;-72
2024/04/10 03:20:55;;;;;;;3.03;2.00;;;;;;;8.66;100.00;96981.19;5323347;26;20241;-72
2024/04/10 03:23:21;;;;;;;2.50;1.80;;;;;;;8.55;100.00;96981.41;5326300;26;20233;-71
2024/04/10 03:26:03;;;;;;;1.63;1.27;;;;;;;8.79;100.00;96988.72;5325849;26;20590;-72
2024/04/10 03:28:28;;;;;;;2.50;1.60;;;;;;;8.65;100.00;96982.16;5324117;26;20621;-72
2024/04/10 03:30:57;;;;;;;5.90;2.10;;;;;;;8.70;100.00;96985.16;5323629;26;20233;-72
2024/04/10 03:33:24;;;;;;;5.17;1.93;;;;;;;8.61;100.00;96991.31;5325501;26;20268;-71
2024/04/10 03:35:53;;;;;;;3.67;1.97;;;;;;;8.66;100.00;96986.44;5324396;26;20859;-72
2024/04/10 03:38:20;;;;;;;2.33;1.63;;;;;;;8.72;100.00;96987.69;5326623;26;20889;-71
2024/04/10 03:40:51;;;;;;;2.93;1.83;;;;;;;8.70;100.00;96990.44;5324596;26;20637;-72
2024/04/10 03:43:20;;;;;;;2.23;1.60;;;;;;;8.78;100.00;96998.41;5327512;26;20673;-72
2024/04/10 03:45:49;;;;;;;3.30;1.87;;;;;;;8.66;100.00;97001.41;5333111;26;20570;-71
2024/04/10 03:48:17;;;;;;;3.83;2.03;;;;;;;8.61;100.00;96993.94;5330503;26;20276;-72
2024/04/10 03:50:45;;;;;;;2.13;1.70;;;;;;;8.65;100.00;97000.53;5324130;26;20359;-72
2024/04/10 03:53:13;;;;;;;3.27;2.20;;;;;;;8.71;100.00;96993.91;5326226;26;20285;-72
2024/04/10 03:55:39;;;;;;;2.33;1.77;;;;;;;8.57;100.00;96997.84;5327128;26;20357;-71
2024/04/10 03:58:10;;;;;;;2.10;1.80;;;;;;;8.88;100.00;97011.50;5326746;26;20644;-71
2024/04/10 04:00:35;;;;;;;3.27;2.00;;;;;;;8.66;100.00;97017.97;5326538;26;20311;-72
2024/04/10 04:03:03;;;;;;;3.70;2.30;;;;;;;8.67;100.00;97017.00;5325863;26;21300;-72
2024/04/10 04:05:29;;;;;;;3.00;1.80;;;;;;;8.89;100.00;97018.41;5326997;26;20233;-72
2024/04/10 04:07:57;;;;;;;2.40;1.70;;;;;;;8.88;100.00;97025.44;5325782;26;20287;-71
2024/04/10 04:10:23;;;;;;;3.23;2.10;;;;;;;8.80;100.00;97033.25;5325905;26;20774;-71
2024/04/10 04:12:51;;;;;;;3.30;1.73;;;;;;;8.94;100.00;97038.00;5326047;26;20245;-71
2024/04/10 04:15:19;;;;;;;4.10;2.00;;;;;;;8.84;100.00;97037.22;5327434;26;21246;-72
2024/04/10 04:17:47;;;;;;;4.87;1.60;;;;;;;8.72;100.00;97040.22;5326224;26;20297;-72
2024/04/10 04:20:13;;;;;;;2.30;1.73;;;;;;;8.55;100.00;97040.97;5325550;26;20304;-71
2024/04/10 04:22:41;;;;;;;5.43;2.07;;;;;;;8.73;100.00;97042.72;5328681;26;20334;-71
2024/04/10 04:25:07;;;;;;;3.80;2.40;;;;;;;8.82;100.00;97044.44;5326448;26;20295;-72
2024/04/10 04:27:36;;;;;;;1.97;1.53;;;;;;;8.57;100.00;97053.00;5328530;26;20328;-73
2024/04/10 04:30:01;;;;;;;4.53;1.70;;;;;;;8.60;100.00;97055.34;5322204;26;20237;-70
2024/04/10 04:32:34;;;;;;;2.57;1.67;;;;;;;8.48;100.00;97047.81;5325133;26;20339;-71
2024/04/10 04:34:59;;;;;;;3.20;2.10;;;;;;;8.47;100.00;97047.94;5332224;26;20288;-72
2024/04/10 04:37:28;;;;;;;2.70;1.97;;;;;;;8.50;100.00;97051.94;5326192;26;20584;-70
2024/04/10 04:39:53;;;;;;;2.90;1.83;;;;;;;8.63;100.00;97059.47;5326748;26;20234;-72
2024/04/10 04:42:22;;;;;;;2.30;1.30;;;;;;;8.57;100.00;97054.81;5325642;26;20539;-71
2024/04/10 04:44:47;;;;;;;3.30;2.00;;;;;;;8.62;100.00;97063.91;5328303;26;20241;-72
2024/04/10 04:47:16;;;;;;;3.17;1.90;;;;;;;8.75;100.00;97064.38;5324645;26;20218;-71
2024/04/10 04:49:44;;;;;;;5.57;2.10;;;;;;;8.92;100.00;97066.22;5328179;26;20727;-72
2024/04/10 04:52:13;;;;;;;3.90;1.73;;;;;;;8.75;100.00;97071.47;5322661;26;20372;-71
2024/04/10 04:54:39;;;;;;;2.97;1.73;;;;;;;8.78;100.00;97073.78;5327485;26;20288;-72
2024/04/10 04:57:09;;;;;;;4.07;1.60;;;;;;;8.75;100.00;97079.34;5324245;26;20245;-72
2024/04/10 04:59:34;;;;;;;2.47;1.90;;;;;;;8.71;100.00;97078.78;5329407;26;20620;-72
2024/04/10 05:02:03;;;;;;;3.60;1.83;;;;;;;8.89;100.00;97078.84;5328960;26;20233;-70
2024/04/10 05:07:18;;;;;;;4.17;2.03;;;;;;;9.01;100.00;97083.75;5333146;26;20279;-71
2024/04/10 05:09:50;;;;;;;3.07;1.80;;;;;;;8.86;100.00;97090.50;5330311;26;20292;-72
2024/04/10 05:12:16;;;;;;;2.23;1.60;;;;;;;8.74;100.00;97091.63;5333991;26;20225;-71
2024/04/10 05:14:49;;;;;;;3.07;2.07;;;;;;;8.80;100.00;97095.50;5330598;26;20267;-72
2024/04/10 05:17:14;;;;;;;7.40;2.87;;;;;;;8.77;100.00;97112.38;5330532;26;20351;-70
2024/04/10 05:19:43;;;;;;;6.07;2.93;;;;;;;8.91;100.00;97104.03;5330855;26;20245;-71
2024/04/10 05:22:08;;;;;;;6.43;2.97;;;;;;;9.00;100.00;97111.03;5329521;26;20281;-72
2024/04/10 05:24:39;;;;;;;4.93;2.47;;;;;;;9.23;100.00;97109.66;5329808;26;20751;-70
2024/04/10 05:27:05;;;;;;;2.77;1.83;;;;;;;8.98;100.00;97114.78;5330829;26;21332;-70
2024/04/10 05:29:33;;;;;;;2.73;1.83;;;;;;;8.94;100.00;97130.00;5328374;26;20285;-72
2024/04/10 05:31:59;;;;;;;3.63;2.30;;;;;;;8.82;100.00;97127.69;5326134;26;20284;-72
2024/04/10 05:34:27;;;;;;;2.30;1.97;;;;;;;8.75;100.00;97126.63;5327126;26;20679;-71
2024/04/10 05:36:53;;;;;;;5.97;2.40;;;;;;;8.92;100.00;97133.75;5328789;26;20276;-72
2024/04/10 05:39:21;;;;;;;8.70;2.07;;;;;;;8.90;100.00;97144.41;5330307;26;20334;-71
2024/04/10 05:41:50;;;;;;;3.17;2.07;;;;;;;8.98;100.00;97141.88;5326781;26;20233;-72
2024/04/10 05:44:18;;;;;;;3.70;2.17;;;;;;;8.92;100.00;97147.72;5332232;26;20272;-71
2024/04/10 05:46:43;;;;;;;4.23;2.33;;;;;;;8.79;100.00;97152.47;5331985;26;20754;-69
2024/04/10 05:49:12;;;;;;;4.57;2.43;;;;;;;8.95;100.00;97162.38;5329410;26;20241;-70
2024/04/10 05:51:37;;;;;;;4.17;2.30;;;;;;;8.89;100.00;97168.22;5330593;26;20232;-70
2024/04/10 05:54:06;;;;;;;3.33;2.07;;;;;;;9.05;100.00;97169.25;5329499;26;20240;-71
2024/04/10 05:56:31;;;;;;;3.57;2.20;;;;;;;8.88;100.00;97179.69;5342777;26;20351;-71
2024/04/10 05:59:02;;;;;;;3.20;2.00;;;;;;;9.03;100.00;97179.09;5329589;26;20248;-71
2024/04/10 06:01:28;;;;;;;2.43;1.83;;;;;;;9.09;100.00;97187.22;5333234;26;20307;-72
2024/04/10 06:03:56;;;;;;;3.33;2.10;;;;;;;8.89;100.00;97184.81;5328843;26;20245;-71
2024/04/10 06:06:22;;;;;;;3.57;2.13;;;;;;;8.92;100.00;97184.50;5334770;26;20280;-70
2024/04/10 06:08:51;;;;;;;2.43;1.90;;;;;;;9.09;100.00;97187.22;5327437;26;20233;-72
2024/04/10 06:11:17;;;;;;;3.23;2.30;;;;;;;9.18;100.00;97193.41;5331434;26;20259;-71
2024/04/10 06:13:51;;;;;;;3.00;2.00;;;;;;;9.15;100.00;97198.94;5328765;26;20287;-71
2024/04/10 06:16:19;;;;;;;4.30;2.37;;;;;;;9.05;100.00;97208.69;5326284;26;20337;-71
2024/04/10 06:18:47;;;;;;;3.70;2.20;;;;;;;9.05;100.00;97215.75;5326137;26;20271;-71
2024/04/10 06:21:13;;;;;;;3.20;1.80;;;;;;;9.07;100.00;97214.63;5323837;26;20308;-71
2024/04/10 06:23:44;;;;;;;3.30;2.20;;;;;;;9.23;100.00;97217.47;5331287;26;20338;-72
2024/04/10 06:26:10;;;;;;;3.33;2.10;;;;;;;9.13;100.00;97221.94;5328724;26;20236;-72
2024/04/10 06:28:38;;;;;;;2.90;1.93;;;;;;;9.17;100.00;97226.75;5330743;26;20274;-71
2024/04/10 06:31:06;;;;;;;4.53;2.30;;;;;;;9.20;100.00;97213.34;5329892;26;20304;-71
2024/04/10 06:33:37;;;;;;;3.43;2.10;;;;;;;9.24;100.00;97217.31;5333916;26;20232;-71
2024/04/10 06:36:04;;;;;;;3.40;1.93;;;;;;;9.30;100.00;97221.16;5330865;26;20308;-72
2024/04/10 06:38:32;;;;;;;2.47;1.90;;;;;;;9.25;100.00;97208.47;5343989;26;20860;-71
2024/04/10 06:41:00;;;;;;;2.73;1.77;;;;;;;9.31;100.00;97212.31;5329222;26;20865;-71
2024/04/10 06:43:28;;;;;;;3.20;2.00;;;;;;;9.28;100.00;97212.63;5332572;26;20236;-72
2024/04/10 06:45:55;;;;;;;3.63;2.10;;;;;;;9.27;100.00;97216.22;5331456;26;20221;-73
2024/04/10 06:48:24;;;;;;;3.83;2.20;;;;;;;9.45;100.00;97220.53;5330263;26;20293;-72
2024/04/10 06:50:55;;;;;;;4.00;2.63;;;;;;;9.19;100.00;97216.94;5333308;26;20233;-73
2024/04/10 06:53:23;;;;;;;5.00;2.87;;;;;;;9.24;100.00;97224.38;5330011;26;20275;-71
2024/04/10 06:55:52;;;;;;;3.27;2.47;;;;;;;9.35;100.00;97225.00;5331219;26;20237;-72
2024/04/10 06:58:21;;;;;;;6.13;3.23;;;;;;;9.26;100.00;97231.16;5329014;26;21534;-71
2024/04/10 07:00:54;;;;;;;3.77;2.07;;;;;;;9.55;100.00;97225.78;5331830;26;20344;-71
2024/04/10 07:03:22;;;;;;;3.67;2.10;;;;;;;9.46;100.00;97226.66;5332273;26;20306;-72
2024/04/10 07:05:48;;;;;;;3.40;2.30;;;;;;;9.48;100.00;97227.31;5332550;26;20288;-72
2024/04/10 07:08:19;;;;;;;4.67;2.80;;;;;;;9.16;100.00;97233.00;5332025;26;20267;-71
2024/04/10 07:10:50;;;;;;;5.13;2.90;;;;;;;9.58;100.00;97228.09;5331145;26;20373;-71
2024/04/10 07:13:19;;;;;;;10.30;2.83;;;;;;;9.62;100.00;97229.47;5329108;26;20335;-71
2024/04/10 07:15:47;;;;;;;3.73;2.47;;;;;;;9.54;100.00;97239.91;5325449;26;20267;-71
2024/04/10 07:18:14;;;;;;;2.67;1.97;;;;;;;9.38;100.00;97244.94;5325521;26;20891;-71
2024/04/10 07:20:42;;;;;;;5.47;2.33;;;;;;;9.71;100.00;97242.53;5324058;26;20300;-72
2024/04/10 07:23:07;;;;;;;4.03;2.30;;;;;;;9.75;100.00;97252.66;5324419;26;20351;-71
2024/04/10 07:25:38;;;;;;;3.93;2.50;;;;;;;9.78;100.00;97254.16;5341214;26;20239;-71
2024/04/10 07:28:04;;;;;;;6.63;2.63;;;;;;;9.72;100.00;97255.59;5332330;26;21411;-73
2024/04/10 07:30:32;;;;;;;3.80;2.60;;;;;;;9.96;100.00;97263.75;5334110;26;20308;-73
2024/04/10 07:32:58;;;;;;;4.43;2.30;;;;;;;10.11;100.00;97278.09;5328680;26;20360;-72
2024/04/10 07:35:30;;;;;;;3.70;2.20;;;;;;;10.20;100.00;97284.28;5334738;26;20245;-71
2024/04/10 07:37:56;;;;;;;4.97;1.80;;;;;;;10.21;100.00;97284.13;5328506;26;21109;-72
2024/04/10 07:40:24;;;;;;;4.20;2.03;;;;;;;10.10;100.00;97289.59;5331809;26;20245;-71
2024/04/10 07:42:52;;;;;;;5.63;1.83;;;;;;;10.27;100.00;97294.03;5332542;26;20371;-72
2024/04/10 07:45:20;;;;;;;4.90;1.90;;;;;;;10.06;100.00;97300.59;5341594;26;20233;-72
2024/04/10 07:47:46;;;;;;;3.03;2.20;;;;;;;10.15;100.00;97304.97;5331936;26;20342;-73
2024/04/10 07:50:14;;;;;;;2.83;1.67;;;;;;;9.88;100.00;97303.13;5324906;26;20342;-71
2024/04/10 07:52:40;;;;;;;4.70;2.07;;;;;;;9.91;100.00;97307.28;5334373;26;20295;-72
2024/04/10 07:55:09;;;;;;;4.83;2.40;;;;;;;10.32;100.00;97306.78;5329642;26;20275;-71
2024/04/10 07:57:35;;;;;;;3.90;2.03;;;;;;;10.21;100.00;97307.81;5329745;26;20231;-72
2024/04/10 08:00:08;;;;;;;2.53;1.60;;;;;;;10.71;100.00;97315.06;5328311;26;20292;-71
2024/04/10 08:02:34;;;;;;;11.00;2.10;;;;;;;10.70;100.00;97307.31;5330590;26;20231;-71
2024/04/10 08:05:02;;;;;;;3.57;1.80;;;;;;;10.60;100.00;97309.19;5328880;26;20292;-71
2024/04/10 08:07:29;;;;;;;4.23;1.97;;;;;;;10.73;100.00;97312.25;5330879;26;21037;-71
2024/04/10 08:09:57;;;;;;;4.60;1.50;;;;;;;10.38;100.00;97309.63;5337564;26;20291;-70
2024/04/10 08:12:23;;;;;;;3.13;1.90;;;;;;;10.97;100.00;97316.75;5327881;26;20342;-72
2024/04/10 08:14:53;;;;;;;2.07;1.27;;;;;;;11.22;100.00;97315.94;5329607;26;20725;-70
2024/04/10 08:17:22;;;;;;;1.87;1.30;;;;;;;11.11;100.00;97316.22;5322184;26;20289;-71
2024/04/10 08:19:51;;;;;;;3.43;1.60;;;;;;;10.92;100.00;97317.38;5322651;26;21062;-72
2024/04/10 08:22:17;;;;;;;1.53;1.33;;;;;;;11.18;100.00;97317.25;5325860;26;20296;-70
2024/04/10 08:24:45;;;;;;;3.23;1.53;;;;;;;11.16;100.00;97316.59;5330311;26;20830;-72
2024/04/10 08:27:11;;;;;;;2.17;1.53;;;;;;;11.52;100.00;97312.88;5331368;26;20332;-71
2024/04/10 08:29:39;;;;;;;2.03;1.37;;;;;;;11.88;100.00;97314.38;5334108;26;20809;-71
2024/04/10 08:32:05;;;;;;;3.63;1.70;;;;;;;11.84;100.00;97323.59;5329104;26;20364;-72
2024/04/10 08:34:36;;;;;;;3.77;1.27;;;;;;;11.91;100.00;97325.41;5333074;26;20248;-71
2024/04/10 08:37:01;;;;;;;2.30;1.40;;;;;;;11.79;100.00;97333.81;5337232;26;20241;-72
2024/04/10 08:39:29;;;;;;;2.03;1.43;;;;;;;11.62;100.00;97345.25;5332295;26;20754;-71
2024/04/10 08:41:56;;;;;;;2.50;1.50;;;;;;;11.36;100.00;97341.75;5331826;26;20338;-71
2024/04/10 08:44:27;;;;;;;2.23;1.27;;;;;;;11.99;100.00;97348.41;5332278;26;20229;-72
2024/04/10 08:46:55;;;;;;;4.13;1.30;;;;;;;12.09;100.00;97349.13;5334633;26;20351;-72
2024/04/10 08:49:24;;;;;;;2.20;1.30;;;;;;;11.62;98.96;97361.09;5331282;26;20269;-72
2024/04/10 08:51:52;;;;;;;4.00;1.40;;;;;;;12.09;100.00;97352.56;5333360;26;20299;-72
2024/04/10 08:54:23;;;;;;;3.40;1.40;;;;;;;12.34;100.00;97349.84;5330714;26;20221;-72
2024/04/10 08:56:49;;;;;;;2.33;1.30;;;;;;;12.15;99.40;97359.88;5334701;26;20271;-72
2024/04/10 08:59:17;;;;;;;3.63;1.37;;;;;;;12.18;100.00;97359.53;5330799;26;20233;-71
2024/04/10 09:01:43;;;;;;;2.07;1.30;;;;;;;12.35;97.64;97375.31;5342886;26;20311;-72
2024/04/10 09:04:13;;;;;;;7.03;1.17;;;;;;;12.41;94.46;97366.75;5329271;26;20777;-71
2024/04/10 09:06:39;;;;;;;1.83;1.20;;;;;;;12.47;90.42;97374.00;5335007;26;20294;-72
2024/04/10 09:09:11;;;;;;;1.47;1.13;;;;;;;11.91;91.02;97367.69;5328219;26;20342;-71
2024/04/10 09:11:37;;;;;;;14.23;1.50;;;;;;;11.95;94.07;97371.69;5338794;26;20345;-71
2024/04/10 09:14:06;;;;;;;1.60;1.17;;;;;;;12.17;94.42;97377.22;5327334;26;20233;-72
2024/04/10 09:16:32;;;;;;;2.57;1.20;;;;;;;12.02;91.98;97372.69;5324374;26;20285;-71
2024/04/10 09:19:10;;;;;;;1.90;1.20;;;;;;;12.13;90.49;97377.72;5325156;26;20229;-71
2024/04/10 09:21:36;;;;;;;1.27;0.93;;;;;;;11.97;91.49;97384.75;5331111;26;20351;-72
2024/04/10 09:24:04;;;;;;;4.37;1.30;;;;;;;12.12;91.30;97385.78;5325986;26;20229;-72
2024/04/10 09:26:32;;;;;;;3.07;1.27;;;;;;;12.62;94.62;97375.06;5340393;26;20764;-70
2024/04/10 09:29:07;;;;;;;3.03;1.20;;;;;;;12.79;97.60;97382.03;5329614;26;20337;-71
2024/04/10 09:31:34;;;;;;;2.10;1.13;;;;;;;12.65;92.09;97382.66;5339353;26;20282;-71
2024/04/10 09:34:02;;;;;;;6.10;1.40;;;;;;;11.95;93.90;97384.91;5328636;26;20581;-71
2024/04/10 09:36:32;;;;;;;2.80;1.40;;;;;;;12.31;94.76;97384.56;5339990;26;20297;-71
2024/04/10 09:39:05;;;;;;;3.17;0.90;;;;;;;12.41;92.51;97393.19;5335781;26;20237;-71
2024/04/10 09:41:35;;;;;;;1.17;1.00;;;;;;;12.57;92.09;97381.81;5338130;26;20233;-71
2024/04/10 09:44:06;;;;;;;2.67;1.10;;;;;;;12.57;92.39;97387.94;5332409;26;20285;-71
2024/04/10 09:46:34;;;;;;;4.77;1.47;;;;;;;12.76;90.72;97386.84;5334426;26;20247;-72
2024/04/10 09:49:10;;;;;;;1.90;1.23;;;;;;;13.23;95.80;97384.25;5330623;26;20269;-71
2024/04/10 09:51:37;;;;;;;1.80;0.90;;;;;;;13.20;84.19;97386.38;5336074;26;20282;-72
2024/04/10 09:54:07;;;;;;;3.13;1.10;;;;;;;13.30;83.76;97382.63;5332246;26;20276;-71
2024/04/10 09:56:36;;;;;;;7.90;1.10;;;;;;;13.43;88.92;97378.44;5339872;26;20291;-71
2024/04/10 09:59:06;;;;;;;3.53;1.07;;;;;;;13.62;86.71;97372.81;5331575;26;20756;-72
2024/04/10 10:01:31;;;;;;;5.27;1.00;;;;;;;13.82;83.55;97378.56;5337360;26;20290;-71
2024/04/10 10:03:59;;;;;;;3.35;0.80;;;;;;;14.05;84.86;97373.19;5330834;26;20273;-70
2024/04/10 10:06:30;;;;;;;2.55;1.17;;;;;;;14.53;77.84;97369.53;5338319;26;20719;-71
2024/04/10 10:08:58;;;;;;;5.00;1.23;;;;;;;14.91;75.55;97370.28;5332003;26;20735;-70
2024/04/10 10:11:24;;;;;;;6.05;0.93;;;;;;;14.95;77.48;97370.75;5336142;26;20338;-72
2024/04/10 10:14:02;;;;;;;2.83;1.15;;;;;;;15.59;69.60;97376.41;5328213;26;20349;-70
2024/04/10 10:16:31;;;;;;;1.20;0.65;;;;;;;15.94;70.32;97377.38;5325899;26;20275;-71
2024/04/10 10:19:02;;;;;;;1.23;1.10;;;;;;;15.82;68.19;97382.50;5326750;26;20225;-71
2024/04/10 10:21:29;;;;;;;2.03;0.70;;;;;;;14.91;67.35;97377.44;5324182;26;20237;-72
2024/04/10 10:23:59;;;;;;;1.30;0.82;;;;;;;15.05;67.67;97377.47;5331763;26;20244;-71
2024/04/10 10:26:25;;;;;;;2.58;0.90;;;;;;;14.18;67.46;97391.25;5336571;26;20574;-70
2024/04/10 10:29:06;;;;;;;2.80;0.88;;;;;;;13.57;68.35;97391.00;5338269;26;20300;-70
2024/04/10 10:31:32;;;;;;;0.80;0.60;;;;;;;13.63;70.51;97387.72;5333847;26;20233;-70
2024/04/10 10:34:01;;;;;;;2.13;0.83;;;;;;;14.44;67.72;97383.84;5338336;26;20274;-70
2024/04/10 10:36:31;;;;;;;4.83;0.93;;;;;;;14.73;68.64;97377.69;5333571;26;20280;-70
2024/04/10 10:39:03;;;;;;;1.43;0.67;;;;;;;15.19;66.31;97374.06;5338010;26;20580;-71
2024/04/10 10:41:28;;;;;;;1.30;0.60;;;;;;;15.10;66.80;97372.47;5331747;26;20367;-70
2024/04/10 10:44:00;;;;;;;6.82;0.80;;;;;;;15.14;64.84;97380.91;5338326;26;20239;-70
2024/04/10 10:46:28;;;;;;;7.68;0.80;;;;;;;15.19;65.50;97383.88;5332528;26;20229;-71
2024/04/10 10:48:57;;;;;;;3.63;0.90;;;;;;;14.96;63.14;97383.84;5338985;26;20243;-70
2024/04/10 10:51:23;;;;;;;1.55;1.00;;;;;;;14.92;64.97;97382.56;5329990;26;20301;-71
2024/04/10 10:53:52;;;;;;;3.58;1.23;;;;;;;14.92;62.44;97377.25;5337147;26;20351;-71
2024/04/10 10:56:24;;;;;;;1.15;0.52;;;;;;;15.04;62.31;97375.81;5333147;26;20229;-71
2024/04/10 10:58:52;;;;;;;4.57;1.05;;;;;;;14.71;63.43;97381.53;5339941;26;20296;-72
2024/04/10 11:01:18;;;;;;;1.38;1.02;;;;;;;14.57;61.90;97370.84;5331318;26;20295;-71
2024/04/10 11:03:49;;;;;;;1.52;0.70;;;;;;;14.87;62.09;97363.69;5340698;26;20244;-71
2024/04/10 11:06:16;;;;;;;3.17;1.10;;;;;;;14.60;61.41;97366.03;5331742;26;20268;-71
2024/04/10 11:08:44;;;;;;;3.00;0.90;;;;;;;14.90;61.88;97378.44;5343177;26;20251;-71
2024/04/10 11:11:14;;;;;;;1.50;0.82;;;;;;;15.32;62.28;97379.63;5328536;26;20296;-72
2024/04/10 11:13:49;;;;;;;1.25;0.70;;;;;;;15.23;62.57;97379.88;5331154;26;20225;-71
2024/04/10 11:16:28;;;;;;;3.10;0.63;;;;;;;14.77;61.63;97386.97;5325182;26;20311;-72
2024/04/10 11:18:59;;;;;;;2.00;0.77;;;;;;;14.63;65.29;97390.34;5325300;26;20277;-71
2024/04/10 11:21:24;;;;;;;1.45;0.60;;;;;;;14.17;63.99;97384.28;5324229;26;20308;-72
2024/04/10 11:23:53;;;;;;;2.90;0.77;;;;;;;14.17;64.95;97393.06;5330898;26;21158;-71
2024/04/10 11:26:19;;;;;;;2.65;0.70;;;;;;;14.36;67.25;97390.00;5329521;26;20233;-72
2024/04/10 11:28:48;;;;;;;1.60;0.75;;;;;;;14.35;67.44;97382.22;5345205;26;20421;-72
2024/04/10 11:31:15;;;;;;;3.10;1.20;;;;;;;14.47;64.27;97380.81;5331880;26;20279;-71
2024/04/10 11:33:43;;;;;;;5.07;1.00;;;;;;;14.42;63.81;97383.16;5340449;26;20287;-71
2024/04/10 11:36:11;;;;;;;2.95;1.23;;;;;;;14.65;66.19;97388.38;5333443;26;20311;-71
2024/04/10 11:38:39;;;;;;;2.13;0.70;;;;;;;14.58;69.45;97377.81;5341645;26;20341;-72